KADW/ADW METAR and TAF weather

Enter ICAO airport designator
Station Type Date Time Source
KADW METAR 2020/07/06 09:56 UTC NOAA

KADW 060956Z AUTO 00000KT 10SM FEW150 23/22 A3000 RMK AO2 SLP163 T02340218 $


Station Type Date Time Source
KADW Decoded METAR 2020/07/06 09:56 UTC NOAA

Camp Springs / Andrews Air Force Base, MD, United States (KADW) 38-49N 076-51W 88M
Jul 06, 2020 - 05:56 AM EDT / 2020.07.06 0956 UTC
Wind: Calm:0
Visibility: 10 mile(s):0
Sky conditions: mostly clear
Temperature: 74.1 F (23.4 C)
Dew Point: 71.2 F (21.8 C)
Relative Humidity: 90%
Pressure (altimeter): 30 in. Hg (1015 hPa)
ob: KADW 060956Z AUTO 00000KT 10SM FEW150 23/22 A3000 RMK AO2 SLP163 T02340218
cycle: 10

Station Type Date Time Source
KADW TAF 2020/07/06 09:55 UTC NOAA

TAF KADW 060900Z 0609/0715 22006KT 9999 FEW250 QNH2998INS
BECMG 0614/0615 20010KT 9999 VCSH FEW050 FEW100 SCT250 QNH2998INS
BECMG 0618/0619 20010KT 9000 -SHRA VCTS FEW040CB SCT120 BKN250 QNH2998INS
BECMG 0700/0701 19005KT 9999 NSW FEW060 FEW120 FEW250 QNH3000INS
BECMG 0713/0714 21008KT 9999 SKC FEW050 QNH3005INS TX33/0619Z TN22/0610Z

Example: see airport list